Forside
METAR-TAF:

METAR-TAF

Lufthavne :

Aurora, Illinois, USA

Breddekreds: 41-46-12N, længdekreds: 088-28-53W, højde: 215 m

Aktuelle vejr

Denne rapport blev lavet for 31 minutter siden, kl. 19:52 UTC
Vind 13 kt fra sydvest med vindstød på up til 20 kt
Temperatur 9°C
Fugtighed 43%
Tryk 1020 hPa
Sigt: 16.1 km
skyfri

METAR: KARR 221952Z 22013G20KT 10SM CLR 09/M03 A3013 RMK AO2 SLP208 T00891033

Tid: 14:23 (20:23 UTC)


TAF: fraværende

Vejrobservationer og prognoser fra mere end 4000 lufthavne (METAR og TAF).

De gule og røde prikker repræsenterer de meteorologiske stationer.

Flyt musen over at se navnet på stationen.

Så klik over at se vejr observationer og prognoser.

At skifte det kort: Klik på de grønne knapper med et sort kors for at zoome ind; på den grønne knap med en bindestreg for at zoome ud; eller på de grønne pile for tilstødende kort.


METAR-TAF: